Time;durP1;ratioP1;P1;durP2;ratioP2;P2;SDS_P1;SDS_P2;PMS_P1;PMS_P2;Temp;Humidity;BMP_temperature;BMP_pressure;BME280_temperature;BME280_humidity;BME280_pressure;Samples;Min_cycle;Max_cycle;Signal;HPM_P1;HPM_P2
2021/03/03 00:01:59;;;;;;;45.38;15.02;;;;;;;1.53;83.48;102038.28;5063446;28;20028;-73
2021/03/03 00:04:25;;;;;;;55.80;16.05;;;;;;;1.52;83.77;102027.97;5063373;28;20013;-73
2021/03/03 00:06:51;;;;;;;62.00;14.93;;;;;;;1.55;83.80;102029.00;5063320;28;20080;-73
2021/03/03 00:09:16;;;;;;;50.25;13.68;;;;;;;1.55;83.69;102030.69;5063073;28;20021;-73
2021/03/03 00:11:42;;;;;;;50.60;15.48;;;;;;;1.56;83.47;102017.09;5063281;28;20020;-72
2021/03/03 00:14:07;;;;;;;64.25;18.02;;;;;;;1.46;83.51;102005.47;5063086;28;20044;-71
2021/03/03 00:16:32;;;;;;;55.58;17.20;;;;;;;1.50;83.29;102012.53;5045560;28;20201;-73
2021/03/03 00:18:58;;;;;;;68.72;15.05;;;;;;;1.54;83.58;102008.44;5063332;28;20107;-72
2021/03/03 00:21:23;;;;;;;65.03;16.35;;;;;;;1.53;82.80;102006.69;5063054;28;20025;-72
2021/03/03 00:23:48;;;;;;;78.55;17.85;;;;;;;1.43;83.06;101995.94;5063220;28;20104;-73
2021/03/03 00:26:14;;;;;;;59.25;15.45;;;;;;;1.29;83.71;101991.75;5045157;28;20021;-73
2021/03/03 00:28:40;;;;;;;65.47;12.85;;;;;;;1.31;83.82;101993.56;5063151;28;20031;-73
2021/03/03 00:31:05;;;;;;;81.20;18.00;;;;;;;1.31;83.90;101995.28;5063017;28;20123;-73
2021/03/03 00:33:30;;;;;;;96.00;20.45;;;;;;;1.35;83.92;101992.97;5063149;28;20032;-73
2021/03/03 00:35:56;;;;;;;103.53;20.38;;;;;;;1.39;83.80;101988.88;5045131;28;20029;-74
2021/03/03 00:38:21;;;;;;;68.38;17.25;;;;;;;1.36;84.01;101979.38;5062956;28;20021;-73
2021/03/03 00:40:46;;;;;;;79.43;15.55;;;;;;;1.35;84.14;101981.84;5065659;28;20041;-71
2021/03/03 00:43:12;;;;;;;91.78;18.20;;;;;;;1.38;84.15;101987.13;5067160;28;20057;-70
2021/03/03 00:45:37;;;;;;;71.88;16.80;;;;;;;1.34;84.41;101985.22;5066717;28;20025;-71
2021/03/03 00:48:03;;;;;;;58.00;16.75;;;;;;;1.32;84.74;101986.78;5067001;28;20040;-71
2021/03/03 00:50:28;;;;;;;66.18;19.65;;;;;;;1.38;84.53;101976.88;5066713;28;20037;-72
2021/03/03 00:52:54;;;;;;;99.63;18.80;;;;;;;1.40;84.69;101982.09;5066534;28;20049;-71
2021/03/03 00:55:19;;;;;;;56.22;15.10;;;;;;;1.41;84.59;101974.50;5066570;28;20084;-72
2021/03/03 00:57:45;;;;;;;75.22;18.95;;;;;;;1.40;84.38;101975.31;5066609;28;20017;-72
2021/03/03 01:00:11;;;;;;;62.28;18.02;;;;;;;1.40;84.32;101975.31;5066403;28;20021;-71
2021/03/03 01:02:37;;;;;;;46.80;15.93;;;;;;;1.40;84.65;101967.63;5048493;28;20017;-72
2021/03/03 01:05:03;;;;;;;55.53;15.82;;;;;;;1.32;84.38;101961.19;5048552;28;20155;-71
2021/03/03 01:07:28;;;;;;;42.92;14.93;;;;;;;1.36;84.31;101964.00;5066656;28;20165;-71
2021/03/03 01:09:53;;;;;;;51.35;15.73;;;;;;;1.32;84.56;101964.66;5066491;28;20634;-71
2021/03/03 01:12:19;;;;;;;53.58;15.68;;;;;;;1.33;84.48;101962.94;5066121;28;20112;-71
2021/03/03 01:14:44;;;;;;;48.33;16.35;;;;;;;1.32;84.83;101962.09;5066033;28;20021;-71
2021/03/03 01:17:10;;;;;;;54.63;16.48;;;;;;;1.37;84.66;101952.09;5066136;28;20028;-71
2021/03/03 01:19:35;;;;;;;45.53;14.77;;;;;;;1.35;84.75;101944.34;5066450;28;20040;-71
2021/03/03 01:22:00;;;;;;;49.63;15.82;;;;;;;1.42;84.35;101940.41;5065812;28;20116;-71
2021/03/03 01:24:26;;;;;;;51.45;15.90;;;;;;;1.45;84.42;101945.69;5066206;28;20496;-71
2021/03/03 01:26:52;;;;;;;64.78;16.33;;;;;;;1.41;84.38;101941.22;5065935;28;20103;-71
2021/03/03 01:29:17;;;;;;;52.67;15.88;;;;;;;1.40;84.55;101942.03;5065897;28;20021;-71
2021/03/03 01:31:42;;;;;;;32.35;12.25;;;;;;;1.41;84.34;101941.22;5065762;28;20420;-71
2021/03/03 01:34:08;;;;;;;33.30;13.80;;;;;;;1.36;84.23;101924.72;5066005;28;20032;-71
2021/03/03 01:36:33;;;;;;;33.33;11.90;;;;;;;1.42;84.02;101937.84;5065931;28;20082;-71
2021/03/03 01:38:59;;;;;;;33.10;12.60;;;;;;;1.39;83.97;101924.91;5065323;28;20121;-70
2021/03/03 01:41:24;;;;;;;36.95;12.48;;;;;;;1.33;84.13;101925.44;5064695;28;20029;-70
2021/03/03 01:43:49;;;;;;;31.42;10.68;;;;;;;1.34;84.13;101921.22;5064985;28;20154;-70
2021/03/03 01:46:15;;;;;;;31.27;11.23;;;;;;;1.36;84.11;101929.84;5065890;28;20105;-71
2021/03/03 01:48:41;;;;;;;30.60;12.50;;;;;;;1.30;84.12;101911.59;5065761;28;20038;-70
2021/03/03 01:51:07;;;;;;;41.13;13.65;;;;;;;1.37;84.29;101913.72;5064939;28;20031;-69
2021/03/03 01:53:32;;;;;;;42.67;13.20;;;;;;;1.40;84.32;101907.88;5065577;28;20027;-70
2021/03/03 01:55:58;;;;;;;37.05;12.75;;;;;;;1.46;83.99;101911.66;5047616;28;20199;-70
2021/03/03 01:58:23;;;;;;;33.25;13.82;;;;;;;1.48;83.91;101899.81;5065592;28;20025;-70
2021/03/03 02:00:49;;;;;;;30.52;12.32;;;;;;;1.46;83.72;101901.41;5065331;28;20067;-70
2021/03/03 02:03:16;;;;;;;27.40;9.77;;;;;;;1.41;83.75;101895.16;5065737;28;20019;-69
2021/03/03 02:05:42;;;;;;;30.58;10.80;;;;;;;1.33;83.94;101893.84;5065496;28;20039;-69
2021/03/03 02:08:09;;;;;;;27.27;8.88;;;;;;;1.36;83.98;101902.59;5065360;28;20021;-69
2021/03/03 02:10:38;;;;;;;29.30;12.40;;;;;;;1.34;84.14;101899.06;5065346;28;20401;-69
2021/03/03 02:13:16;;;;;;;37.78;13.73;;;;;;;1.39;84.09;101890.75;5065019;28;20045;-69
2021/03/03 02:15:45;;;;;;;34.20;13.60;;;;;;;1.39;84.14;101886.50;5065076;28;20067;-69
2021/03/03 02:18:11;;;;;;;30.08;12.27;;;;;;;1.41;84.01;101874.69;5065202;28;20021;-69
2021/03/03 02:20:54;;;;;;;40.72;13.73;;;;;;;1.38;83.97;101864.28;5065017;28;20029;-69
2021/03/03 02:23:20;;;;;;;40.40;12.90;;;;;;;1.40;83.87;101862.69;5047207;28;20078;-69
2021/03/03 02:25:47;;;;;;;33.25;12.73;;;;;;;1.37;83.99;101852.28;5065111;28;20024;-69
2021/03/03 02:28:14;;;;;;;45.65;14.80;;;;;;;1.42;83.87;101858.50;5064896;28;20021;-68
2021/03/03 02:30:43;;;;;;;39.40;13.68;;;;;;;1.40;84.03;101860.13;5064899;28;20020;-68
2021/03/03 02:33:21;;;;;;;36.33;12.95;;;;;;;1.46;83.26;101852.78;5064719;28;20021;-69
2021/03/03 02:35:47;;;;;;;38.55;14.27;;;;;;;1.44;83.58;101856.03;5064849;28;20032;-67
2021/03/03 02:38:13;;;;;;;35.97;13.70;;;;;;;1.41;83.83;101850.75;5064600;28;20397;-67
2021/03/03 02:40:44;;;;;;;37.28;14.90;;;;;;;1.47;83.80;101854.53;5064566;28;20135;-68
2021/03/03 02:43:17;;;;;;;43.92;15.57;;;;;;;1.51;83.75;101850.47;5064597;28;20066;-68
2021/03/03 02:45:45;;;;;;;37.00;15.20;;;;;;;1.47;83.72;101831.50;5064581;28;20035;-68
2021/03/03 02:48:13;;;;;;;42.60;15.55;;;;;;;1.54;83.50;101834.38;5064540;28;20017;-68
2021/03/03 02:50:38;;;;;;;37.20;15.32;;;;;;;1.51;83.55;101832.53;5064470;28;20080;-67
2021/03/03 02:53:04;;;;;;;42.13;14.68;;;;;;;1.55;83.61;101836.16;5064316;28;20056;-68
2021/03/03 02:55:30;;;;;;;41.50;16.02;;;;;;;1.56;83.72;101832.78;5064480;28;20028;-67
2021/03/03 02:57:57;;;;;;;43.63;16.48;;;;;;;1.56;83.82;101827.66;5064321;28;20028;-68
2021/03/03 03:00:27;;;;;;;47.08;16.27;;;;;;;1.62;83.28;101822.84;5064216;28;20088;-68
2021/03/03 03:02:59;;;;;;;44.78;15.40;;;;;;;1.53;82.86;101807.91;5063269;28;20020;-67
2021/03/03 03:05:28;;;;;;;49.35;16.15;;;;;;;1.56;82.99;101817.41;5064277;28;20473;-67
2021/03/03 03:07:57;;;;;;;39.88;14.20;;;;;;;1.46;83.53;101809.25;5064242;28;20093;-68
2021/03/03 03:10:23;;;;;;;54.35;18.27;;;;;;;1.46;83.64;101811.81;5064295;28;20416;-68
2021/03/03 03:12:52;;;;;;;49.30;18.42;;;;;;;1.48;83.66;101817.03;5063564;28;20393;-69
2021/03/03 03:15:22;;;;;;;49.20;18.90;;;;;;;1.48;83.88;101814.47;5063752;28;20024;-68
2021/03/03 03:17:52;;;;;;;50.53;17.85;;;;;;;1.46;84.06;101813.50;5064257;28;20096;-67
2021/03/03 03:20:19;;;;;;;48.45;17.63;;;;;;;1.46;84.20;101803.25;5063966;28;20115;-68
2021/03/03 03:22:47;;;;;;;46.67;18.75;;;;;;;1.56;84.05;101817.41;5063670;28;20048;-68
2021/03/03 03:25:17;;;;;;;51.22;18.05;;;;;;;1.59;84.16;101821.03;5063959;28;20039;-68
2021/03/03 03:27:44;;;;;;;48.75;16.98;;;;;;;1.60;83.87;101814.19;5045951;28;20021;-67
2021/03/03 03:30:12;;;;;;;41.35;16.40;;;;;;;1.59;83.91;101815.91;5063552;28;20027;-67
2021/03/03 03:32:38;;;;;;;50.88;18.17;;;;;;;1.61;83.99;101804.03;5063653;28;20040;-67
2021/03/03 03:35:04;;;;;;;45.83;16.02;;;;;;;1.64;83.76;101797.31;5063762;28;20348;-67
2021/03/03 03:37:30;;;;;;;50.47;18.05;;;;;;;1.68;83.58;101799.22;5046084;28;20098;-67
2021/03/03 03:39:55;;;;;;;38.15;15.80;;;;;;;1.60;83.74;101793.72;5063493;28;20524;-66
2021/03/03 03:42:23;;;;;;;39.50;16.65;;;;;;;1.59;83.69;101791.97;5063477;28;20112;-67
2021/03/03 03:44:50;;;;;;;40.53;15.93;;;;;;;1.61;83.88;101796.34;5063426;28;20544;-67
2021/03/03 03:47:17;;;;;;;34.80;15.38;;;;;;;1.57;83.68;101789.34;5063622;28;20041;-67
2021/03/03 03:49:46;;;;;;;39.13;17.02;;;;;;;1.63;83.87;101800.69;5063733;28;20113;-67
2021/03/03 03:52:19;;;;;;;40.03;16.77;;;;;;;1.63;83.82;101796.44;5063330;28;20025;-66
2021/03/03 03:54:49;;;;;;;38.20;16.77;;;;;;;1.65;83.94;101797.41;5063553;28;20021;-67
2021/03/03 03:57:14;;;;;;;40.97;17.35;;;;;;;1.66;83.90;101790.63;5063414;28;20033;-66
2021/03/03 03:59:40;;;;;;;44.58;18.38;;;;;;;1.64;83.60;101780.28;5063189;28;20028;-67
2021/03/03 04:02:05;;;;;;;46.42;18.63;;;;;;;1.66;83.81;101783.78;5063255;28;20043;-67
2021/03/03 04:04:30;;;;;;;52.30;18.15;;;;;;;1.67;83.71;101779.56;5063304;28;20024;-66
2021/03/03 04:06:56;;;;;;;38.17;16.85;;;;;;;1.60;83.76;101763.88;5063313;28;20089;-66
2021/03/03 04:09:21;;;;;;;43.47;16.92;;;;;;;1.65;83.95;101773.47;5063314;28;20036;-66
2021/03/03 04:11:49;;;;;;;36.20;13.88;;;;;;;1.66;83.80;101773.53;5063176;28;20029;-66
2021/03/03 04:14:14;;;;;;;36.75;14.98;;;;;;;1.65;83.68;101765.78;5063442;28;20055;-67
2021/03/03 04:16:42;;;;;;;38.47;17.77;;;;;;;1.61;83.84;101770.75;5067715;28;20032;-66
2021/03/03 04:19:08;;;;;;;41.55;16.40;;;;;;;1.65;83.71;101764.13;5067432;28;20083;-66
2021/03/03 04:21:33;;;;;;;35.67;15.68;;;;;;;1.66;83.86;101762.44;5067277;28;20024;-66
2021/03/03 04:23:58;;;;;;;36.63;15.45;;;;;;;1.70;83.80;101755.00;5067313;28;20021;-66
2021/03/03 04:26:24;;;;;;;35.75;15.55;;;;;;;1.76;83.62;101758.69;5067466;28;20288;-66
2021/03/03 04:28:49;;;;;;;36.10;14.52;;;;;;;1.70;83.55;101756.66;5067399;28;20032;-66
2021/03/03 04:31:15;;;;;;;35.35;14.15;;;;;;;1.64;83.65;101754.69;5067022;28;20108;-66
2021/03/03 04:33:40;;;;;;;34.00;14.05;;;;;;;1.69;83.63;101755.78;5067188;28;20032;-66
2021/03/03 04:36:06;;;;;;;28.88;13.32;;;;;;;1.67;83.73;101754.84;5067172;28;20512;-66
2021/03/03 04:38:31;;;;;;;35.47;16.38;;;;;;;1.67;83.77;101752.28;5067149;28;20031;-66
2021/03/03 04:40:56;;;;;;;32.30;14.98;;;;;;;1.70;83.62;101746.44;5066926;28;20049;-66
2021/03/03 04:43:22;;;;;;;33.20;14.05;;;;;;;1.73;83.71;101744.00;5067476;28;20021;-66
2021/03/03 04:45:47;;;;;;;38.00;16.02;;;;;;;1.78;83.73;101746.81;5066847;28;20032;-66
2021/03/03 04:48:13;;;;;;;34.55;15.63;;;;;;;1.80;83.69;101742.66;5066842;28;20338;-66
2021/03/03 04:50:38;;;;;;;33.38;15.40;;;;;;;1.84;83.42;101740.31;5067003;28;20029;-65
2021/03/03 04:53:03;;;;;;;31.70;14.75;;;;;;;1.77;83.44;101740.81;5066764;28;20116;-65
2021/03/03 04:55:29;;;;;;;38.15;14.95;;;;;;;1.77;83.40;101734.81;5066930;28;20017;-66
2021/03/03 04:57:54;;;;;;;35.17;14.45;;;;;;;1.71;83.43;101726.00;5066820;28;20025;-66
2021/03/03 05:00:20;;;;;;;34.47;15.75;;;;;;;1.80;83.42;101733.28;5066392;28;20053;-66
2021/03/03 05:02:45;;;;;;;33.10;14.15;;;;;;;1.79;83.43;101730.66;5066547;28;20028;-66
2021/03/03 05:05:11;;;;;;;39.80;14.63;;;;;;;1.79;83.40;101728.09;5066428;28;20025;-66
2021/03/03 05:07:37;;;;;;;28.02;13.93;;;;;;;1.80;83.27;101728.16;5066605;28;20029;-66
2021/03/03 05:10:03;;;;;;;29.02;15.35;;;;;;;1.77;83.30;101724.56;5066572;28;20035;-66
2021/03/03 05:12:28;;;;;;;33.40;15.25;;;;;;;1.77;83.45;101720.34;5066188;28;20055;-65
2021/03/03 05:14:54;;;;;;;35.08;14.57;;;;;;;1.79;83.48;101723.84;5048316;28;20115;-67
2021/03/03 05:17:19;;;;;;;30.83;14.95;;;;;;;1.82;83.28;101725.69;5066739;28;20021;-67
2021/03/03 05:19:45;;;;;;;34.15;14.40;;;;;;;1.81;83.35;101729.91;5048461;28;20068;-67
2021/03/03 05:22:13;;;;;;;32.47;15.98;;;;;;;1.82;83.23;101723.97;5066321;28;20035;-67
2021/03/03 05:24:38;;;;;;;35.33;14.73;;;;;;;1.88;83.11;101714.84;5066724;28;20021;-66
2021/03/03 05:27:04;;;;;;;35.65;15.13;;;;;;;1.87;83.17;101707.97;5065380;28;20039;-67
2021/03/03 05:29:31;;;;;;;33.05;13.95;;;;;;;1.92;82.88;101709.06;5066156;28;20537;-68
2021/03/03 05:31:57;;;;;;;32.65;14.68;;;;;;;1.84;83.04;101704.47;5065855;28;20024;-69
2021/03/03 05:34:22;;;;;;;37.90;14.20;;;;;;;1.87;82.96;101700.28;5066021;28;20021;-66
2021/03/03 05:36:47;;;;;;;31.30;14.18;;;;;;;1.83;83.09;101696.69;5066020;28;20021;-67
2021/03/03 05:39:13;;;;;;;36.70;16.15;;;;;;;1.85;83.00;101698.53;5065280;28;20084;-67
2021/03/03 05:41:39;;;;;;;30.90;12.60;;;;;;;1.78;83.13;101680.22;5064679;28;20111;-67
2021/03/03 05:44:06;;;;;;;31.90;14.88;;;;;;;1.84;83.09;101691.66;5065664;28;20028;-66
2021/03/03 05:46:32;;;;;;;32.72;14.18;;;;;;;1.86;83.02;101686.59;5065923;28;20025;-69
2021/03/03 05:49:02;;;;;;;34.15;14.02;;;;;;;1.89;83.17;101681.63;5048101;28;20029;-67
2021/03/03 05:51:28;;;;;;;35.10;16.42;;;;;;;1.88;83.38;101672.19;5065806;28;20041;-67
2021/03/03 05:53:54;;;;;;;31.35;15.00;;;;;;;1.87;83.09;101669.56;5065685;28;20021;-67
2021/03/03 05:56:22;;;;;;;30.20;14.15;;;;;;;1.87;82.98;101669.56;5066095;28;20021;-67
2021/03/03 05:58:48;;;;;;;41.85;17.10;;;;;;;1.86;83.25;101663.56;5066366;28;20055;-66
2021/03/03 06:01:14;;;;;;;30.77;13.82;;;;;;;1.89;83.05;101658.56;5065554;28;20025;-67
2021/03/03 06:03:40;;;;;;;30.20;12.68;;;;;;;1.87;83.01;101654.19;5066119;28;20028;-68
2021/03/03 06:06:06;;;;;;;33.42;14.73;;;;;;;1.82;83.12;101654.84;5048501;28;20067;-66
2021/03/03 06:08:31;;;;;;;32.03;15.15;;;;;;;1.83;83.36;101653.16;5065710;28;20025;-70
2021/03/03 06:11:01;;;;;;;35.65;14.77;;;;;;;1.84;83.29;101650.69;5065523;28;20320;-67
2021/03/03 06:13:27;;;;;;;33.03;14.52;;;;;;;1.88;83.16;101641.47;5065403;28;20029;-69
2021/03/03 06:15:53;;;;;;;33.47;15.00;;;;;;;1.87;83.30;101626.88;5065071;28;20025;-73
2021/03/03 06:18:20;;;;;;;28.92;12.75;;;;;;;1.91;83.14;101638.16;5065236;28;20017;-67
2021/03/03 06:20:48;;;;;;;27.17;13.05;;;;;;;1.92;83.00;101627.09;5065254;28;20118;-71
2021/03/03 06:23:24;;;;;;;28.55;12.68;;;;;;;1.88;83.08;101625.22;5065434;28;20036;-66
2021/03/03 06:25:56;;;;;;;25.42;12.95;;;;;;;1.89;82.93;101621.84;5065067;28;20051;-67
2021/03/03 06:28:42;;;;;;;26.75;12.32;;;;;;;1.91;83.12;101618.56;5064904;28;20036;-67
2021/03/03 06:31:28;;;;;;;27.15;11.13;;;;;;;1.93;82.75;101614.38;5064657;28;20089;-67
2021/03/03 06:34:09;;;;;;;28.55;12.45;;;;;;;1.89;82.95;101614.16;5064714;28;20024;-67
2021/03/03 06:36:35;;;;;;;29.27;12.15;;;;;;;1.89;82.84;101607.34;5064723;28;20446;-67
2021/03/03 06:39:39;;;;;;;27.65;13.57;;;;;;;1.86;82.87;101607.22;5064153;28;20481;-66
2021/03/03 06:42:07;;;;;;;27.33;12.60;;;;;;;1.93;82.78;101611.81;5045876;28;20079;-66
2021/03/03 06:44:52;;;;;;;29.23;12.82;;;;;;;1.94;82.76;101608.44;5064527;28;20059;-66
2021/03/03 06:47:19;;;;;;;21.88;11.68;;;;;;;1.97;82.59;101612.84;5064862;28;20020;-67
2021/03/03 06:49:45;;;;;;;30.40;12.73;;;;;;;1.94;82.41;101608.44;5046510;28;20032;-66
2021/03/03 06:52:11;;;;;;;21.02;11.07;;;;;;;1.96;82.44;101605.97;5064206;28;20079;-68
2021/03/03 06:54:36;;;;;;;18.95;10.15;;;;;;;1.96;82.38;101608.53;5064555;28;20020;-66
2021/03/03 06:57:08;;;;;;;23.38;11.73;;;;;;;2.03;82.22;101591.75;5064824;28;20035;-66
2021/03/03 06:59:35;;;;;;;;;;;;;;;1.97;82.35;101593.22;5064833;28;20032;-71
2021/03/03 07:02:01;;;;;;;19.90;10.02;;;;;;;2.03;82.24;101602.00;5064393;28;19908;-68
2021/03/03 07:04:36;;;;;;;20.73;11.15;;;;;;;2.02;81.94;101597.66;5064104;28;20021;-66
2021/03/03 07:07:03;;;;;;;19.10;10.20;;;;;;;2.03;81.87;101599.44;5064491;28;20021;-65
2021/03/03 07:09:48;;;;;;;24.27;11.20;;;;;;;2.06;82.02;101605.56;5046220;28;20047;-66
2021/03/03 07:12:19;;;;;;;22.08;11.50;;;;;;;2.07;81.77;101606.47;5064225;28;20055;-66
2021/03/03 07:14:54;;;;;;;19.25;10.60;;;;;;;2.08;81.73;101608.19;5064168;28;20035;-65
2021/03/03 07:17:24;;;;;;;20.85;10.85;;;;;;;2.12;82.05;101605.00;5064781;28;20109;-66
2021/03/03 07:19:59;;;;;;;22.00;11.40;;;;;;;2.16;81.74;101606.88;5064229;28;20398;-64
2021/03/03 07:22:24;;;;;;;20.10;10.70;;;;;;;2.20;81.70;101606.22;5064213;28;20068;-64
2021/03/03 07:24:55;;;;;;;23.50;11.73;;;;;;;2.20;81.56;101615.59;5064060;28;20442;-66
2021/03/03 07:27:21;;;;;;;21.92;11.05;;;;;;;2.23;81.55;101610.59;5064203;28;20059;-65
2021/03/03 07:29:51;;;;;;;24.00;10.82;;;;;;;2.21;81.51;101610.53;5063962;28;20505;-66
2021/03/03 07:32:18;;;;;;;23.80;10.68;;;;;;;2.21;81.49;101613.09;5063798;28;20074;-65
2021/03/03 07:34:49;;;;;;;24.02;9.63;;;;;;;2.23;81.41;101618.28;5063825;28;20043;-66
2021/03/03 07:37:17;;;;;;;21.88;11.00;;;;;;;2.22;81.22;101609.72;5063885;28;20062;-66
2021/03/03 07:39:48;;;;;;;25.90;9.75;;;;;;;2.18;81.26;101599.25;5063679;28;20401;-65
2021/03/03 07:42:19;;;;;;;18.67;10.20;;;;;;;2.17;81.41;101598.38;5063712;28;20032;-66
2021/03/03 07:44:46;;;;;;;23.02;11.45;;;;;;;2.18;81.43;101587.34;5063742;28;20032;-64
2021/03/03 07:47:15;;;;;;;19.90;9.60;;;;;;;2.25;81.52;101588.50;5063947;28;20028;-65
2021/03/03 07:49:42;;;;;;;23.42;10.15;;;;;;;2.20;81.02;101588.28;5063161;28;20073;-65
2021/03/03 07:52:08;;;;;;;25.67;11.38;;;;;;;2.22;81.29;101590.91;5045676;28;20143;-64
2021/03/03 07:54:34;;;;;;;19.13;10.30;;;;;;;2.23;81.23;101579.84;5063557;28;20029;-65
2021/03/03 07:57:03;;;;;;;19.23;9.25;;;;;;;2.29;81.07;101586.94;5045760;28;20093;-65
2021/03/03 07:59:29;;;;;;;24.02;9.85;;;;;;;2.29;80.99;101586.94;5063373;28;20136;-64
2021/03/03 08:01:55;;;;;;;23.58;11.10;;;;;;;2.33;81.39;101586.28;5063416;28;20033;-64
2021/03/03 08:04:39;;;;;;;20.40;9.75;;;;;;;2.34;81.45;101568.41;5045416;28;20017;-66
2021/03/03 08:07:22;;;;;;;19.70;10.48;;;;;;;2.41;81.35;101566.97;5063542;28;20208;-67
2021/03/03 08:10:20;;;;;;;18.20;9.30;;;;;;;2.45;81.08;101568.88;5063412;28;20070;-66
2021/03/03 08:13:03;;;;;;;21.45;9.68;;;;;;;2.45;80.86;101558.63;5030224;28;20033;-65
2021/03/03 08:15:39;;;;;;;19.98;10.30;;;;;;;2.47;80.76;101561.25;5063183;28;20108;-64
2021/03/03 08:18:13;;;;;;;19.40;9.23;;;;;;;2.52;80.59;101564.91;5063435;28;20064;-66
2021/03/03 08:20:40;;;;;;;15.80;9.40;;;;;;;2.57;80.37;101562.53;5063392;28;20032;-66
2021/03/03 08:23:06;;;;;;;21.63;9.95;;;;;;;2.58;80.64;101564.28;5063169;28;20051;-65
2021/03/03 08:25:48;;;;;;;17.45;9.15;;;;;;;2.64;80.52;101559.41;5063445;28;20021;-65
2021/03/03 08:28:29;;;;;;;21.75;10.13;;;;;;;2.71;80.34;101553.75;5063532;28;20021;-65
2021/03/03 08:31:13;;;;;;;21.92;9.73;;;;;;;2.68;80.10;101552.72;5063185;28;20032;-65
2021/03/03 08:33:48;;;;;;;22.25;9.60;;;;;;;2.62;80.12;101549.91;5063110;28;20029;-65
2021/03/03 08:36:23;;;;;;;22.75;11.40;;;;;;;2.65;80.31;101553.44;5063427;28;20089;-65
2021/03/03 08:38:54;;;;;;;19.23;9.98;;;;;;;2.75;80.55;101547.03;5063366;28;20021;-65
2021/03/03 08:41:22;;;;;;;17.50;10.27;;;;;;;2.86;80.59;101547.47;5063398;28;20303;-65
2021/03/03 08:43:55;;;;;;;17.40;8.68;;;;;;;2.93;80.19;101551.19;5063150;28;20017;-65
2021/03/03 08:46:20;;;;;;;19.50;9.23;;;;;;;2.94;79.64;101552.97;5062185;28;20093;-65
2021/03/03 08:49:06;;;;;;;16.65;9.50;;;;;;;2.97;79.40;101548.81;5062212;28;20043;-65
2021/03/03 08:51:35;;;;;;;19.77;8.93;;;;;;;2.99;79.62;101537.75;5044258;28;20045;-65
2021/03/03 08:54:03;;;;;;;17.85;9.75;;;;;;;2.90;79.38;101533.09;5063151;28;20027;-66
2021/03/03 08:56:32;;;;;;;21.40;10.43;;;;;;;2.88;79.13;101534.72;5044986;28;20017;-65
2021/03/03 08:58:58;;;;;;;23.00;10.93;;;;;;;2.78;79.36;101529.22;5063031;28;20025;-66
2021/03/03 09:02:01;;;;;;;18.75;10.00;;;;;;;2.77;79.49;101536.84;5064891;28;20032;-66
2021/03/03 09:04:28;;;;;;;15.35;7.97;;;;;;;2.80;79.44;101534.41;5048768;28;20077;-66
2021/03/03 09:07:14;;;;;;;19.80;10.20;;;;;;;2.81;79.42;101531.03;5066547;28;20389;-65
2021/03/03 09:09:42;;;;;;;17.55;9.73;;;;;;;2.77;79.06;101529.16;5066810;28;20203;-66
2021/03/03 09:12:11;;;;;;;18.75;8.13;;;;;;;2.78;78.90;101525.78;5048393;28;20016;-64
2021/03/03 09:14:38;;;;;;;18.45;8.10;;;;;;;2.70;78.71;101523.75;5066317;28;20508;-65
2021/03/03 09:17:07;;;;;;;16.35;6.97;;;;;;;2.68;79.02;101517.72;5066547;28;20031;-65
2021/03/03 09:19:33;;;;;;;20.10;9.23;;;;;;;2.69;79.16;101519.47;5066434;28;20419;-65
2021/03/03 09:21:59;;;;;;;14.35;7.75;;;;;;;2.72;78.95;101508.44;5066260;28;20021;-65
2021/03/03 09:24:25;;;;;;;16.63;7.85;;;;;;;2.70;78.80;101498.13;5048352;28;20055;-66
2021/03/03 09:27:08;;;;;;;19.05;9.18;;;;;;;2.68;79.20;101499.75;5066303;28;20052;-65
2021/03/03 09:29:34;;;;;;;;;;;;;;;2.74;79.20;101496.56;5066360;28;20021;-65
2021/03/03 09:32:08;;;;;;;18.42;7.93;;;;;;;2.74;78.93;101488.88;5066206;28;19909;-65
2021/03/03 09:34:36;;;;;;;20.98;8.88;;;;;;;2.62;79.10;101486.66;5066238;28;20029;-65
2021/03/03 09:37:03;;;;;;;24.90;9.35;;;;;;;2.65;79.13;101489.34;5066183;28;20016;-65
2021/03/03 09:39:30;;;;;;;30.77;12.15;;;;;;;2.63;78.87;101490.09;5065178;28;20060;-65
2021/03/03 09:42:04;;;;;;;35.53;11.48;;;;;;;2.53;78.97;101481.16;5065078;28;20028;-65
2021/03/03 09:44:46;;;;;;;26.55;8.50;;;;;;;2.47;79.42;101484.34;5065647;28;20024;-66
2021/03/03 09:47:25;;;;;;;35.72;12.57;;;;;;;2.39;79.90;101478.91;5066060;28;20017;-66
2021/03/03 09:49:50;;;;;;;28.15;10.93;;;;;;;2.43;79.92;101470.50;5065788;28;20033;-65
2021/03/03 09:52:16;;;;;;;32.85;12.25;;;;;;;2.43;79.56;101467.09;5065420;28;20729;-65
2021/03/03 09:54:42;;;;;;;28.33;11.38;;;;;;;2.41;79.24;101467.00;5065677;28;20029;-65
2021/03/03 09:57:19;;;;;;;39.83;13.00;;;;;;;2.34;79.30;101470.13;5065887;28;20025;-65
2021/03/03 09:59:46;;;;;;;30.38;9.73;;;;;;;2.32;79.52;101459.81;5065408;28;20392;-66
2021/03/03 10:02:15;;;;;;;36.92;14.18;;;;;;;2.29;79.36;101456.22;5065462;28;20107;-65
2021/03/03 10:04:43;;;;;;;21.17;8.38;;;;;;;2.15;79.44;101451.41;5065495;28;20052;-65
2021/03/03 10:07:14;;;;;;;41.40;13.35;;;;;;;2.19;79.79;101467.78;5065726;28;20016;-65
2021/03/03 10:09:41;;;;;;;24.67;7.93;;;;;;;2.19;80.23;101449.84;5065298;28;20056;-65
2021/03/03 10:12:13;;;;;;;38.03;13.60;;;;;;;2.18;80.28;101438.72;5064555;28;20036;-66
2021/03/03 10:15:01;;;;;;;34.25;12.77;;;;;;;2.41;80.13;101461.00;5065264;28;20024;-65
2021/03/03 10:17:31;;;;;;;33.47;13.07;;;;;;;2.38;79.54;101454.06;5065677;28;20114;-65
2021/03/03 10:19:58;;;;;;;28.48;9.38;;;;;;;2.32;79.32;101464.03;5065413;28;20013;-65
2021/03/03 10:22:23;;;;;;;28.90;12.40;;;;;;;2.26;79.38;101462.09;5065276;28;20424;-66
2021/03/03 10:24:58;;;;;;;30.85;11.52;;;;;;;2.29;79.63;101459.69;5065257;28;20021;-66
2021/03/03 10:27:24;;;;;;;31.05;11.00;;;;;;;2.35;79.60;101462.50;5065247;28;20025;-65
2021/03/03 10:29:50;;;;;;;31.45;11.75;;;;;;;2.37;79.44;101460.00;5065089;28;20025;-65
2021/03/03 10:32:15;;;;;;;27.20;8.95;;;;;;;2.34;79.29;101449.63;5064771;28;20035;-65
2021/03/03 10:34:42;;;;;;;27.40;9.85;;;;;;;2.28;79.50;101451.94;5065001;28;20021;-65
2021/03/03 10:37:08;;;;;;;27.02;10.55;;;;;;;2.30;79.34;101451.16;5064968;28;20059;-66
2021/03/03 10:39:34;;;;;;;29.25;9.88;;;;;;;2.23;79.35;101444.94;5065041;28;20412;-66
2021/03/03 10:42:08;;;;;;;25.25;9.05;;;;;;;2.22;79.65;101448.28;5065036;28;20025;-65
2021/03/03 10:44:42;;;;;;;16.92;7.88;;;;;;;2.23;79.75;101450.06;5064737;28;20032;-65
2021/03/03 10:47:08;;;;;;;25.20;9.80;;;;;;;2.17;79.51;101449.75;5064892;28;20032;-65
2021/03/03 10:49:38;;;;;;;29.70;10.43;;;;;;;2.08;80.29;101454.50;5064942;28;20021;-66
2021/03/03 10:52:18;;;;;;;24.08;9.02;;;;;;;2.10;80.44;101440.97;5064734;28;20024;-66
2021/03/03 10:54:44;;;;;;;29.67;11.10;;;;;;;2.16;80.32;101455.72;5064746;28;20088;-65
2021/03/03 10:57:09;;;;;;;19.83;9.07;;;;;;;2.20;80.44;101449.91;5046718;28;20044;-67
2021/03/03 10:59:36;;;;;;;26.88;10.80;;;;;;;2.22;80.20;101452.56;5064417;28;20017;-67
2021/03/03 11:02:03;;;;;;;27.90;10.55;;;;;;;2.27;79.89;101457.88;5063625;28;20203;-66
2021/03/03 11:04:46;;;;;;;33.83;12.40;;;;;;;2.26;80.01;101453.53;5062688;28;20025;-66
2021/03/03 11:07:18;;;;;;;29.92;11.68;;;;;;;2.30;79.96;101456.28;5064043;28;20044;-67
2021/03/03 11:09:53;;;;;;;;;;;;;;;2.44;80.15;101454.34;5065055;28;20031;-66
2021/03/03 11:12:22;;;;;;;26.23;10.93;;;;;;;2.42;79.67;101437.13;5064204;28;19909;-65
2021/03/03 11:14:48;;;;;;;28.00;11.02;;;;;;;2.37;79.42;101436.94;5064048;28;20025;-64
2021/03/03 11:17:13;;;;;;;28.85;9.80;;;;;;;2.39;79.81;101430.19;5064342;28;20025;-66
2021/03/03 11:19:39;;;;;;;28.50;10.40;;;;;;;2.42;79.51;101424.31;5064195;28;20020;-65
2021/03/03 11:22:04;;;;;;;22.92;10.15;;;;;;;2.42;79.59;101430.31;5063920;28;20028;-68
2021/03/03 11:24:29;;;;;;;23.92;10.57;;;;;;;2.43;79.77;101421.81;5063296;28;20024;-66
2021/03/03 11:26:55;;;;;;;19.75;10.52;;;;;;;2.46;79.70;101427.06;5063731;28;20035;-65